sensor_id;sensor_type;location;lat;lon;timestamp;P1;durP1;ratioP1;P2;durP2;ratioP2
8694;SDS011;65580;49.446;6.854;2023-07-13T00:02:31;4.95;;;1.90;;
8694;SDS011;65580;49.446;6.854;2023-07-13T00:06:34;3.67;;;1.75;;
8694;SDS011;65580;49.446;6.854;2023-07-13T00:10:40;4.28;;;1.90;;
8694;SDS011;65580;49.446;6.854;2023-07-13T00:14:45;3.90;;;2.08;;
8694;SDS011;65580;49.446;6.854;2023-07-13T00:18:48;2.92;;;1.70;;
8694;SDS011;65580;49.446;6.854;2023-07-13T00:22:50;4.93;;;1.80;;
8694;SDS011;65580;49.446;6.854;2023-07-13T00:26:55;3.85;;;2.00;;
8694;SDS011;65580;49.446;6.854;2023-07-13T00:30:59;4.50;;;1.70;;
8694;SDS011;65580;49.446;6.854;2023-07-13T00:35:02;3.30;;;1.90;;
8694;SDS011;65580;49.446;6.854;2023-07-13T00:39:06;3.03;;;1.92;;
8694;SDS011;65580;49.446;6.854;2023-07-13T00:43:10;4.18;;;1.83;;
8694;SDS011;65580;49.446;6.854;2023-07-13T00:47:16;3.28;;;1.90;;
8694;SDS011;65580;49.446;6.854;2023-07-13T00:51:21;4.88;;;1.88;;
8694;SDS011;65580;49.446;6.854;2023-07-13T00:55:26;4.07;;;1.80;;
8694;SDS011;65580;49.446;6.854;2023-07-13T00:59:29;6.65;;;2.50;;
8694;SDS011;65580;49.446;6.854;2023-07-13T01:03:35;3.10;;;1.95;;
8694;SDS011;65580;49.446;6.854;2023-07-13T01:07:39;6.82;;;1.75;;
8694;SDS011;65580;49.446;6.854;2023-07-13T01:11:44;5.35;;;1.80;;
8694;SDS011;65580;49.446;6.854;2023-07-13T01:15:47;5.88;;;2.50;;
8694;SDS011;65580;49.446;6.854;2023-07-13T01:19:53;3.42;;;2.00;;
8694;SDS011;65580;49.446;6.854;2023-07-13T01:23:58;3.47;;;1.90;;
8694;SDS011;65580;49.446;6.854;2023-07-13T01:28:01;3.00;;;2.00;;
8694;SDS011;65580;49.446;6.854;2023-07-13T01:32:04;4.65;;;2.03;;
8694;SDS011;65580;49.446;6.854;2023-07-13T01:36:09;2.88;;;1.92;;
8694;SDS011;65580;49.446;6.854;2023-07-13T01:40:15;3.80;;;1.80;;
8694;SDS011;65580;49.446;6.854;2023-07-13T01:44:18;3.92;;;2.50;;
8694;SDS011;65580;49.446;6.854;2023-07-13T01:48:21;3.05;;;1.98;;
8694;SDS011;65580;49.446;6.854;2023-07-13T01:52:25;3.15;;;1.80;;
8694;SDS011;65580;49.446;6.854;2023-07-13T01:56:29;3.63;;;2.42;;
8694;SDS011;65580;49.446;6.854;2023-07-13T02:00:32;5.80;;;1.80;;
8694;SDS011;65580;49.446;6.854;2023-07-13T02:04:35;4.82;;;2.03;;
8694;SDS011;65580;49.446;6.854;2023-07-13T02:08:39;6.40;;;2.60;;
8694;SDS011;65580;49.446;6.854;2023-07-13T02:12:44;3.42;;;1.98;;
8694;SDS011;65580;49.446;6.854;2023-07-13T02:16:47;5.00;;;2.53;;
8694;SDS011;65580;49.446;6.854;2023-07-13T02:20:50;4.15;;;2.33;;
8694;SDS011;65580;49.446;6.854;2023-07-13T02:24:53;4.72;;;2.20;;
8694;SDS011;65580;49.446;6.854;2023-07-13T02:28:57;3.45;;;2.08;;
8694;SDS011;65580;49.446;6.854;2023-07-13T02:33:01;6.65;;;2.30;;
8694;SDS011;65580;49.446;6.854;2023-07-13T02:37:04;4.78;;;2.10;;
8694;SDS011;65580;49.446;6.854;2023-07-13T02:41:07;5.30;;;2.42;;
8694;SDS011;65580;49.446;6.854;2023-07-13T02:45:11;4.35;;;2.20;;
8694;SDS011;65580;49.446;6.854;2023-07-13T02:49:15;3.72;;;2.22;;
8694;SDS011;65580;49.446;6.854;2023-07-13T02:53:18;4.82;;;2.30;;
8694;SDS011;65580;49.446;6.854;2023-07-13T02:57:21;5.50;;;2.30;;
8694;SDS011;65580;49.446;6.854;2023-07-13T03:01:25;5.57;;;2.70;;
8694;SDS011;65580;49.446;6.854;2023-07-13T03:05:28;4.70;;;2.03;;
8694;SDS011;65580;49.446;6.854;2023-07-13T03:09:32;4.53;;;2.75;;
8694;SDS011;65580;49.446;6.854;2023-07-13T03:13:36;3.70;;;2.15;;
8694;SDS011;65580;49.446;6.854;2023-07-13T03:21:44;3.13;;;2.05;;
8694;SDS011;65580;49.446;6.854;2023-07-13T03:25:47;4.15;;;2.03;;
8694;SDS011;65580;49.446;6.854;2023-07-13T03:29:50;4.45;;;2.35;;
8694;SDS011;65580;49.446;6.854;2023-07-13T03:33:54;5.00;;;2.20;;
8694;SDS011;65580;49.446;6.854;2023-07-13T03:37:57;3.35;;;2.00;;
8694;SDS011;65580;49.446;6.854;2023-07-13T03:42:00;6.10;;;2.58;;
8694;SDS011;65580;49.446;6.854;2023-07-13T03:46:03;2.03;;;1.63;;
8694;SDS011;65580;49.446;6.854;2023-07-13T03:50:08;4.50;;;1.95;;
8694;SDS011;65580;49.446;6.854;2023-07-13T03:54:11;2.95;;;1.98;;
8694;SDS011;65580;49.446;6.854;2023-07-13T03:58:25;5.50;;;2.70;;
8694;SDS011;65580;49.446;6.854;2023-07-13T04:02:29;6.80;;;3.13;;
8694;SDS011;65580;49.446;6.854;2023-07-13T04:06:33;6.35;;;2.92;;
8694;SDS011;65580;49.446;6.854;2023-07-13T04:10:37;3.83;;;2.30;;
8694;SDS011;65580;49.446;6.854;2023-07-13T04:14:40;4.90;;;2.72;;
8694;SDS011;65580;49.446;6.854;2023-07-13T04:18:42;6.60;;;2.80;;
8694;SDS011;65580;49.446;6.854;2023-07-13T04:22:47;7.90;;;3.10;;
8694;SDS011;65580;49.446;6.854;2023-07-13T04:26:49;7.22;;;3.35;;
8694;SDS011;65580;49.446;6.854;2023-07-13T04:30:52;4.57;;;2.63;;
8694;SDS011;65580;49.446;6.854;2023-07-13T04:34:55;4.35;;;2.70;;
8694;SDS011;65580;49.446;6.854;2023-07-13T04:39:02;5.03;;;2.60;;
8694;SDS011;65580;49.446;6.854;2023-07-13T04:43:05;4.78;;;2.70;;
8694;SDS011;65580;49.446;6.854;2023-07-13T04:47:08;6.80;;;2.40;;
8694;SDS011;65580;49.446;6.854;2023-07-13T04:51:11;8.75;;;3.63;;
8694;SDS011;65580;49.446;6.854;2023-07-13T04:55:16;8.63;;;3.80;;
8694;SDS011;65580;49.446;6.854;2023-07-13T04:59:18;8.35;;;3.63;;
8694;SDS011;65580;49.446;6.854;2023-07-13T05:03:21;6.20;;;3.67;;
8694;SDS011;65580;49.446;6.854;2023-07-13T05:07:24;7.35;;;3.47;;
8694;SDS011;65580;49.446;6.854;2023-07-13T05:11:28;7.18;;;3.15;;
8694;SDS011;65580;49.446;6.854;2023-07-13T05:15:32;6.85;;;3.28;;
8694;SDS011;65580;49.446;6.854;2023-07-13T05:23:38;6.82;;;3.42;;
8694;SDS011;65580;49.446;6.854;2023-07-13T05:27:44;6.70;;;2.70;;
8694;SDS011;65580;49.446;6.854;2023-07-13T05:31:48;6.28;;;3.65;;
8694;SDS011;65580;49.446;6.854;2023-07-13T05:35:52;7.38;;;3.15;;
8694;SDS011;65580;49.446;6.854;2023-07-13T05:39:55;7.90;;;3.30;;
8694;SDS011;65580;49.446;6.854;2023-07-13T05:43:59;6.53;;;3.30;;
8694;SDS011;65580;49.446;6.854;2023-07-13T05:48:02;5.28;;;2.92;;
8694;SDS011;65580;49.446;6.854;2023-07-13T05:52:06;8.60;;;3.20;;
8694;SDS011;65580;49.446;6.854;2023-07-13T05:56:09;6.65;;;2.92;;
8694;SDS011;65580;49.446;6.854;2023-07-13T06:00:14;5.43;;;2.97;;
8694;SDS011;65580;49.446;6.854;2023-07-13T06:04:17;8.52;;;2.60;;
8694;SDS011;65580;49.446;6.854;2023-07-13T06:08:20;5.93;;;2.60;;
8694;SDS011;65580;49.446;6.854;2023-07-13T06:12:23;5.03;;;2.40;;
8694;SDS011;65580;49.446;6.854;2023-07-13T06:16:28;3.60;;;2.05;;
8694;SDS011;65580;49.446;6.854;2023-07-13T06:20:33;8.77;;;2.30;;
8694;SDS011;65580;49.446;6.854;2023-07-13T06:24:36;3.15;;;2.10;;
8694;SDS011;65580;49.446;6.854;2023-07-13T06:28:39;4.40;;;1.92;;
8694;SDS011;65580;49.446;6.854;2023-07-13T06:32:43;4.63;;;1.85;;
8694;SDS011;65580;49.446;6.854;2023-07-13T06:36:46;3.38;;;1.73;;
8694;SDS011;65580;49.446;6.854;2023-07-13T06:40:49;6.15;;;1.95;;
8694;SDS011;65580;49.446;6.854;2023-07-13T06:44:52;3.28;;;1.60;;
8694;SDS011;65580;49.446;6.854;2023-07-13T06:48:56;4.72;;;1.45;;
8694;SDS011;65580;49.446;6.854;2023-07-13T06:52:59;2.53;;;1.33;;
8694;SDS011;65580;49.446;6.854;2023-07-13T06:57:02;2.15;;;1.30;;
8694;SDS011;65580;49.446;6.854;2023-07-13T07:01:05;3.63;;;1.15;;
8694;SDS011;65580;49.446;6.854;2023-07-13T07:05:10;2.97;;;1.25;;
8694;SDS011;65580;49.446;6.854;2023-07-13T07:09:13;2.65;;;1.00;;
8694;SDS011;65580;49.446;6.854;2023-07-13T07:13:17;3.75;;;1.10;;
8694;SDS011;65580;49.446;6.854;2023-07-13T07:17:20;2.88;;;1.10;;
8694;SDS011;65580;49.446;6.854;2023-07-13T07:21:26;3.08;;;1.15;;
8694;SDS011;65580;49.446;6.854;2023-07-13T07:25:29;1.73;;;0.90;;
8694;SDS011;65580;49.446;6.854;2023-07-13T07:29:33;3.83;;;0.95;;
8694;SDS011;65580;49.446;6.854;2023-07-13T07:33:39;3.35;;;0.93;;
8694;SDS011;65580;49.446;6.854;2023-07-13T07:37:43;3.72;;;0.88;;
8694;SDS011;65580;49.446;6.854;2023-07-13T07:41:49;5.80;;;0.95;;
8694;SDS011;65580;49.446;6.854;2023-07-13T07:45:55;3.15;;;0.80;;
8694;SDS011;65580;49.446;6.854;2023-07-13T07:49:58;4.32;;;0.80;;
8694;SDS011;65580;49.446;6.854;2023-07-13T07:54:02;3.35;;;0.95;;
8694;SDS011;65580;49.446;6.854;2023-07-13T07:58:05;4.43;;;1.00;;
8694;SDS011;65580;49.446;6.854;2023-07-13T08:02:28;3.67;;;1.10;;
8694;SDS011;65580;49.446;6.854;2023-07-13T08:06:34;4.38;;;0.90;;
8694;SDS011;65580;49.446;6.854;2023-07-13T08:10:41;3.50;;;0.95;;
8694;SDS011;65580;49.446;6.854;2023-07-13T08:14:44;9.32;;;0.98;;
8694;SDS011;65580;49.446;6.854;2023-07-13T08:18:53;4.05;;;1.02;;
8694;SDS011;65580;49.446;6.854;2023-07-13T08:27:00;3.92;;;0.80;;
8694;SDS011;65580;49.446;6.854;2023-07-13T08:31:04;1.95;;;1.02;;
8694;SDS011;65580;49.446;6.854;2023-07-13T08:35:09;2.20;;;0.88;;
8694;SDS011;65580;49.446;6.854;2023-07-13T08:39:12;5.30;;;1.17;;
8694;SDS011;65580;49.446;6.854;2023-07-13T08:43:17;4.80;;;0.90;;
8694;SDS011;65580;49.446;6.854;2023-07-13T08:47:22;3.50;;;0.80;;
8694;SDS011;65580;49.446;6.854;2023-07-13T08:51:28;5.13;;;0.85;;
8694;SDS011;65580;49.446;6.854;2023-07-13T08:55:35;2.75;;;0.80;;
8694;SDS011;65580;49.446;6.854;2023-07-13T08:59:41;2.72;;;1.00;;
8694;SDS011;65580;49.446;6.854;2023-07-13T09:03:46;2.00;;;0.80;;
8694;SDS011;65580;49.446;6.854;2023-07-13T09:08:00;2.47;;;0.90;;
8694;SDS011;65580;49.446;6.854;2023-07-13T09:12:08;3.72;;;1.00;;
8694;SDS011;65580;49.446;6.854;2023-07-13T09:16:17;4.53;;;0.85;;
8694;SDS011;65580;49.446;6.854;2023-07-13T09:20:22;4.20;;;1.15;;
8694;SDS011;65580;49.446;6.854;2023-07-13T09:24:29;3.88;;;0.98;;
8694;SDS011;65580;49.446;6.854;2023-07-13T09:28:38;4.15;;;1.00;;
8694;SDS011;65580;49.446;6.854;2023-07-13T09:32:51;5.13;;;0.98;;
8694;SDS011;65580;49.446;6.854;2023-07-13T09:36:54;4.53;;;1.02;;
8694;SDS011;65580;49.446;6.854;2023-07-13T09:40:59;3.85;;;0.80;;
8694;SDS011;65580;49.446;6.854;2023-07-13T09:45:11;3.53;;;0.88;;
8694;SDS011;65580;49.446;6.854;2023-07-13T09:53:27;3.03;;;0.90;;
8694;SDS011;65580;49.446;6.854;2023-07-13T09:57:33;4.05;;;1.00;;
8694;SDS011;65580;49.446;6.854;2023-07-13T10:01:50;6.05;;;1.10;;
8694;SDS011;65580;49.446;6.854;2023-07-13T10:05:55;3.97;;;1.20;;
8694;SDS011;65580;49.446;6.854;2023-07-13T10:10:12;4.93;;;1.00;;
8694;SDS011;65580;49.446;6.854;2023-07-13T10:14:17;3.15;;;1.05;;
8694;SDS011;65580;49.446;6.854;2023-07-13T10:18:20;1.77;;;0.98;;
8694;SDS011;65580;49.446;6.854;2023-07-13T10:22:27;2.28;;;1.02;;
8694;SDS011;65580;49.446;6.854;2023-07-13T10:26:33;4.45;;;0.90;;
8694;SDS011;65580;49.446;6.854;2023-07-13T10:30:39;3.92;;;0.95;;
8694;SDS011;65580;49.446;6.854;2023-07-13T10:34:44;3.78;;;1.00;;
8694;SDS011;65580;49.446;6.854;2023-07-13T10:38:50;5.22;;;0.98;;
8694;SDS011;65580;49.446;6.854;2023-07-13T10:42:54;3.88;;;0.90;;
8694;SDS011;65580;49.446;6.854;2023-07-13T10:47:00;3.63;;;0.90;;
8694;SDS011;65580;49.446;6.854;2023-07-13T10:51:05;4.40;;;0.90;;
8694;SDS011;65580;49.446;6.854;2023-07-13T10:59:40;4.55;;;0.85;;
8694;SDS011;65580;49.446;6.854;2023-07-13T11:03:47;4.03;;;1.00;;
8694;SDS011;65580;49.446;6.854;2023-07-13T11:07:53;4.45;;;1.00;;
8694;SDS011;65580;49.446;6.854;2023-07-13T11:11:59;4.88;;;0.98;;
8694;SDS011;65580;49.446;6.854;2023-07-13T11:16:12;1.45;;;0.77;;
8694;SDS011;65580;49.446;6.854;2023-07-13T11:20:32;2.38;;;0.68;;
8694;SDS011;65580;49.446;6.854;2023-07-13T11:24:50;3.22;;;1.05;;
8694;SDS011;65580;49.446;6.854;2023-07-13T11:28:56;3.92;;;0.90;;
8694;SDS011;65580;49.446;6.854;2023-07-13T11:33:03;2.67;;;0.90;;
8694;SDS011;65580;49.446;6.854;2023-07-13T11:37:14;3.08;;;0.85;;
8694;SDS011;65580;49.446;6.854;2023-07-13T11:41:19;4.95;;;1.00;;
8694;SDS011;65580;49.446;6.854;2023-07-13T11:45:25;2.65;;;1.00;;
8694;SDS011;65580;49.446;6.854;2023-07-13T11:49:48;3.92;;;1.00;;
8694;SDS011;65580;49.446;6.854;2023-07-13T11:53:53;4.72;;;0.90;;
8694;SDS011;65580;49.446;6.854;2023-07-13T11:57:59;2.83;;;0.75;;
8694;SDS011;65580;49.446;6.854;2023-07-13T12:02:13;2.35;;;0.90;;
8694;SDS011;65580;49.446;6.854;2023-07-13T12:06:25;2.55;;;0.60;;
8694;SDS011;65580;49.446;6.854;2023-07-13T12:10:30;3.70;;;1.20;;
8694;SDS011;65580;49.446;6.854;2023-07-13T12:14:34;4.88;;;0.85;;
8694;SDS011;65580;49.446;6.854;2023-07-13T12:18:38;2.58;;;0.60;;
8694;SDS011;65580;49.446;6.854;2023-07-13T12:22:41;3.53;;;0.68;;
8694;SDS011;65580;49.446;6.854;2023-07-13T12:26:51;1.52;;;0.65;;
8694;SDS011;65580;49.446;6.854;2023-07-13T12:30:57;1.70;;;0.70;;
8694;SDS011;65580;49.446;6.854;2023-07-13T12:35:06;8.63;;;1.00;;
8694;SDS011;65580;49.446;6.854;2023-07-13T12:39:17;1.48;;;0.73;;
8694;SDS011;65580;49.446;6.854;2023-07-13T12:43:22;1.45;;;0.60;;
8694;SDS011;65580;49.446;6.854;2023-07-13T12:47:26;1.65;;;0.68;;
8694;SDS011;65580;49.446;6.854;2023-07-13T12:51:31;2.20;;;0.80;;
8694;SDS011;65580;49.446;6.854;2023-07-13T12:55:40;4.88;;;0.90;;
8694;SDS011;65580;49.446;6.854;2023-07-13T12:59:44;5.20;;;0.98;;
8694;SDS011;65580;49.446;6.854;2023-07-13T13:03:47;2.42;;;1.10;;
8694;SDS011;65580;49.446;6.854;2023-07-13T13:07:54;2.22;;;0.65;;
8694;SDS011;65580;49.446;6.854;2023-07-13T13:11:57;1.52;;;0.77;;
8694;SDS011;65580;49.446;6.854;2023-07-13T13:16:01;3.22;;;0.80;;
8694;SDS011;65580;49.446;6.854;2023-07-13T13:20:13;2.38;;;0.73;;
8694;SDS011;65580;49.446;6.854;2023-07-13T13:24:19;1.17;;;0.63;;
8694;SDS011;65580;49.446;6.854;2023-07-13T13:28:22;1.55;;;0.65;;
8694;SDS011;65580;49.446;6.854;2023-07-13T13:32:25;2.85;;;0.80;;
8694;SDS011;65580;49.446;6.854;2023-07-13T13:36:28;1.63;;;0.70;;
8694;SDS011;65580;49.446;6.854;2023-07-13T13:40:33;2.10;;;0.80;;
8694;SDS011;65580;49.446;6.854;2023-07-13T13:44:36;3.25;;;0.82;;
8694;SDS011;65580;49.446;6.854;2023-07-13T13:48:38;0.82;;;0.52;;
8694;SDS011;65580;49.446;6.854;2023-07-13T13:52:43;4.97;;;0.70;;
8694;SDS011;65580;49.446;6.854;2023-07-13T13:56:48;5.85;;;0.80;;
8694;SDS011;65580;49.446;6.854;2023-07-13T14:00:52;1.27;;;0.52;;
8694;SDS011;65580;49.446;6.854;2023-07-13T14:04:55;1.42;;;0.70;;
8694;SDS011;65580;49.446;6.854;2023-07-13T14:09:00;1.33;;;0.70;;
8694;SDS011;65580;49.446;6.854;2023-07-13T14:13:07;1.17;;;0.88;;
8694;SDS011;65580;49.446;6.854;2023-07-13T14:17:20;3.53;;;0.80;;
8694;SDS011;65580;49.446;6.854;2023-07-13T14:21:24;3.90;;;0.90;;
8694;SDS011;65580;49.446;6.854;2023-07-13T14:25:28;4.22;;;0.90;;
8694;SDS011;65580;49.446;6.854;2023-07-13T14:29:32;3.17;;;1.00;;
8694;SDS011;65580;49.446;6.854;2023-07-13T14:33:35;5.55;;;1.02;;
8694;SDS011;65580;49.446;6.854;2023-07-13T14:37:38;4.93;;;0.90;;
8694;SDS011;65580;49.446;6.854;2023-07-13T14:41:42;2.47;;;0.80;;
8694;SDS011;65580;49.446;6.854;2023-07-13T14:45:47;2.28;;;0.70;;
8694;SDS011;65580;49.446;6.854;2023-07-13T14:49:51;2.80;;;0.70;;
8694;SDS011;65580;49.446;6.854;2023-07-13T14:53:54;3.67;;;0.77;;
8694;SDS011;65580;49.446;6.854;2023-07-13T14:57:57;2.33;;;0.63;;
8694;SDS011;65580;49.446;6.854;2023-07-13T15:02:01;1.80;;;0.68;;
8694;SDS011;65580;49.446;6.854;2023-07-13T15:06:05;2.92;;;0.80;;
8694;SDS011;65580;49.446;6.854;2023-07-13T15:10:15;3.28;;;0.80;;
8694;SDS011;65580;49.446;6.854;2023-07-13T15:14:18;3.13;;;0.90;;
8694;SDS011;65580;49.446;6.854;2023-07-13T15:18:23;2.45;;;0.73;;
8694;SDS011;65580;49.446;6.854;2023-07-13T15:22:27;2.42;;;0.98;;
8694;SDS011;65580;49.446;6.854;2023-07-13T15:26:30;1.25;;;0.60;;
8694;SDS011;65580;49.446;6.854;2023-07-13T15:30:34;1.77;;;0.80;;
8694;SDS011;65580;49.446;6.854;2023-07-13T15:34:42;2.15;;;0.90;;
8694;SDS011;65580;49.446;6.854;2023-07-13T15:38:45;3.20;;;0.90;;
8694;SDS011;65580;49.446;6.854;2023-07-13T15:42:48;4.20;;;1.10;;
8694;SDS011;65580;49.446;6.854;2023-07-13T15:46:51;3.83;;;0.95;;
8694;SDS011;65580;49.446;6.854;2023-07-13T15:51:03;4.10;;;0.80;;
8694;SDS011;65580;49.446;6.854;2023-07-13T15:55:09;3.00;;;1.00;;
8694;SDS011;65580;49.446;6.854;2023-07-13T15:59:13;2.63;;;0.80;;
8694;SDS011;65580;49.446;6.854;2023-07-13T16:03:16;1.02;;;0.85;;
8694;SDS011;65580;49.446;6.854;2023-07-13T16:07:21;3.30;;;0.98;;
8694;SDS011;65580;49.446;6.854;2023-07-13T16:11:26;2.72;;;1.10;;
8694;SDS011;65580;49.446;6.854;2023-07-13T16:15:30;2.50;;;0.80;;
8694;SDS011;65580;49.446;6.854;2023-07-13T16:19:33;3.72;;;0.90;;
8694;SDS011;65580;49.446;6.854;2023-07-13T16:23:37;6.60;;;1.10;;
8694;SDS011;65580;49.446;6.854;2023-07-13T16:27:58;1.85;;;0.80;;
8694;SDS011;65580;49.446;6.854;2023-07-13T16:32:03;5.15;;;0.98;;
8694;SDS011;65580;49.446;6.854;2023-07-13T16:36:12;3.75;;;1.40;;
8694;SDS011;65580;49.446;6.854;2023-07-13T16:40:21;3.22;;;1.30;;
8694;SDS011;65580;49.446;6.854;2023-07-13T16:44:25;2.03;;;0.90;;
8694;SDS011;65580;49.446;6.854;2023-07-13T16:48:29;2.15;;;0.75;;
8694;SDS011;65580;49.446;6.854;2023-07-13T16:52:32;3.05;;;0.90;;
8694;SDS011;65580;49.446;6.854;2023-07-13T16:56:36;1.75;;;0.70;;
8694;SDS011;65580;49.446;6.854;2023-07-13T17:00:40;6.25;;;1.42;;
8694;SDS011;65580;49.446;6.854;2023-07-13T17:04:43;5.95;;;1.02;;
8694;SDS011;65580;49.446;6.854;2023-07-13T17:08:47;4.70;;;0.90;;
8694;SDS011;65580;49.446;6.854;2023-07-13T17:12:54;4.57;;;0.98;;
8694;SDS011;65580;49.446;6.854;2023-07-13T17:16:58;3.17;;;1.00;;
8694;SDS011;65580;49.446;6.854;2023-07-13T17:21:02;3.47;;;1.00;;
8694;SDS011;65580;49.446;6.854;2023-07-13T17:25:08;3.70;;;1.05;;
8694;SDS011;65580;49.446;6.854;2023-07-13T17:33:22;2.78;;;1.00;;
8694;SDS011;65580;49.446;6.854;2023-07-13T17:37:31;2.78;;;0.85;;
8694;SDS011;65580;49.446;6.854;2023-07-13T17:41:34;3.17;;;0.80;;
8694;SDS011;65580;49.446;6.854;2023-07-13T17:45:38;2.45;;;1.00;;
8694;SDS011;65580;49.446;6.854;2023-07-13T17:49:42;2.58;;;0.98;;
8694;SDS011;65580;49.446;6.854;2023-07-13T17:53:47;3.85;;;0.90;;
8694;SDS011;65580;49.446;6.854;2023-07-13T17:57:50;2.30;;;0.90;;
8694;SDS011;65580;49.446;6.854;2023-07-13T18:05:56;4.13;;;1.05;;
8694;SDS011;65580;49.446;6.854;2023-07-13T18:09:59;1.63;;;0.93;;
8694;SDS011;65580;49.446;6.854;2023-07-13T18:14:02;2.28;;;1.00;;
8694;SDS011;65580;49.446;6.854;2023-07-13T18:18:08;1.42;;;0.68;;
8694;SDS011;65580;49.446;6.854;2023-07-13T18:22:12;2.53;;;1.00;;
8694;SDS011;65580;49.446;6.854;2023-07-13T18:26:17;4.18;;;1.00;;
8694;SDS011;65580;49.446;6.854;2023-07-13T18:30:21;2.63;;;0.90;;
8694;SDS011;65580;49.446;6.854;2023-07-13T18:34:25;2.10;;;0.70;;
8694;SDS011;65580;49.446;6.854;2023-07-13T18:38:28;2.88;;;0.90;;
8694;SDS011;65580;49.446;6.854;2023-07-13T18:42:32;1.75;;;0.90;;
8694;SDS011;65580;49.446;6.854;2023-07-13T18:46:35;1.63;;;0.90;;
8694;SDS011;65580;49.446;6.854;2023-07-13T18:54:44;1.98;;;0.90;;
8694;SDS011;65580;49.446;6.854;2023-07-13T18:58:49;3.95;;;0.90;;
8694;SDS011;65580;49.446;6.854;2023-07-13T19:02:52;3.65;;;1.05;;
8694;SDS011;65580;49.446;6.854;2023-07-13T19:06:56;4.88;;;0.90;;
8694;SDS011;65580;49.446;6.854;2023-07-13T19:10:59;1.52;;;1.00;;
8694;SDS011;65580;49.446;6.854;2023-07-13T19:15:08;2.00;;;0.88;;
8694;SDS011;65580;49.446;6.854;2023-07-13T19:19:19;3.63;;;0.90;;
8694;SDS011;65580;49.446;6.854;2023-07-13T19:23:25;1.50;;;1.00;;
8694;SDS011;65580;49.446;6.854;2023-07-13T19:27:32;2.42;;;0.80;;
8694;SDS011;65580;49.446;6.854;2023-07-13T19:35:38;2.63;;;0.73;;
8694;SDS011;65580;49.446;6.854;2023-07-13T19:39:45;1.52;;;0.90;;
8694;SDS011;65580;49.446;6.854;2023-07-13T19:43:52;1.95;;;0.70;;
8694;SDS011;65580;49.446;6.854;2023-07-13T19:47:55;4.28;;;1.00;;
8694;SDS011;65580;49.446;6.854;2023-07-13T19:51:59;3.22;;;0.80;;
8694;SDS011;65580;49.446;6.854;2023-07-13T19:56:03;1.88;;;0.82;;
8694;SDS011;65580;49.446;6.854;2023-07-13T20:00:12;2.58;;;0.80;;
8694;SDS011;65580;49.446;6.854;2023-07-13T20:04:16;2.45;;;1.00;;
8694;SDS011;65580;49.446;6.854;2023-07-13T20:08:19;2.05;;;0.90;;
8694;SDS011;65580;49.446;6.854;2023-07-13T20:12:25;2.67;;;1.13;;
8694;SDS011;65580;49.446;6.854;2023-07-13T20:16:28;1.90;;;1.00;;
8694;SDS011;65580;49.446;6.854;2023-07-13T20:20:32;5.05;;;1.27;;
8694;SDS011;65580;49.446;6.854;2023-07-13T20:24:36;0.98;;;0.80;;
8694;SDS011;65580;49.446;6.854;2023-07-13T20:28:40;3.22;;;1.00;;
8694;SDS011;65580;49.446;6.854;2023-07-13T20:32:43;2.33;;;0.80;;
8694;SDS011;65580;49.446;6.854;2023-07-13T20:36:47;4.15;;;1.15;;
8694;SDS011;65580;49.446;6.854;2023-07-13T20:40:50;2.05;;;0.85;;
8694;SDS011;65580;49.446;6.854;2023-07-13T20:44:55;2.88;;;1.10;;
8694;SDS011;65580;49.446;6.854;2023-07-13T20:48:58;3.30;;;1.30;;
8694;SDS011;65580;49.446;6.854;2023-07-13T20:53:01;4.95;;;1.10;;
8694;SDS011;65580;49.446;6.854;2023-07-13T20:57:05;2.25;;;1.20;;
8694;SDS011;65580;49.446;6.854;2023-07-13T21:01:18;3.67;;;1.20;;
8694;SDS011;65580;49.446;6.854;2023-07-13T21:05:23;3.60;;;1.00;;
8694;SDS011;65580;49.446;6.854;2023-07-13T21:09:27;3.88;;;1.10;;
8694;SDS011;65580;49.446;6.854;2023-07-13T21:13:30;2.22;;;1.25;;
8694;SDS011;65580;49.446;6.854;2023-07-13T21:17:34;3.38;;;1.40;;
8694;SDS011;65580;49.446;6.854;2023-07-13T21:21:38;2.13;;;1.20;;
8694;SDS011;65580;49.446;6.854;2023-07-13T21:25:41;1.92;;;1.10;;
8694;SDS011;65580;49.446;6.854;2023-07-13T21:29:44;1.45;;;1.02;;
8694;SDS011;65580;49.446;6.854;2023-07-13T21:33:50;2.17;;;1.20;;
8694;SDS011;65580;49.446;6.854;2023-07-13T21:37:53;3.40;;;1.10;;
8694;SDS011;65580;49.446;6.854;2023-07-13T21:41:57;1.58;;;1.05;;
8694;SDS011;65580;49.446;6.854;2023-07-13T21:50:08;3.58;;;1.40;;
8694;SDS011;65580;49.446;6.854;2023-07-13T21:54:13;2.42;;;1.20;;
8694;SDS011;65580;49.446;6.854;2023-07-13T21:58:18;1.95;;;1.27;;
8694;SDS011;65580;49.446;6.854;2023-07-13T22:02:21;3.63;;;1.50;;
8694;SDS011;65580;49.446;6.854;2023-07-13T22:06:27;4.45;;;1.50;;
8694;SDS011;65580;49.446;6.854;2023-07-13T22:10:31;4.75;;;1.48;;
8694;SDS011;65580;49.446;6.854;2023-07-13T22:14:34;3.83;;;1.20;;
8694;SDS011;65580;49.446;6.854;2023-07-13T22:18:37;2.17;;;1.30;;
8694;SDS011;65580;49.446;6.854;2023-07-13T22:22:43;2.10;;;1.40;;
8694;SDS011;65580;49.446;6.854;2023-07-13T22:26:46;3.53;;;1.55;;
8694;SDS011;65580;49.446;6.854;2023-07-13T22:30:50;1.65;;;1.25;;
8694;SDS011;65580;49.446;6.854;2023-07-13T22:34:54;3.47;;;1.50;;
8694;SDS011;65580;49.446;6.854;2023-07-13T22:38:58;2.17;;;1.10;;
8694;SDS011;65580;49.446;6.854;2023-07-13T22:43:04;2.00;;;1.10;;
8694;SDS011;65580;49.446;6.854;2023-07-13T22:47:14;4.32;;;1.48;;
8694;SDS011;65580;49.446;6.854;2023-07-13T22:51:18;2.65;;;1.30;;
8694;SDS011;65580;49.446;6.854;2023-07-13T22:55:23;2.50;;;1.45;;
8694;SDS011;65580;49.446;6.854;2023-07-13T22:59:26;4.90;;;1.95;;
8694;SDS011;65580;49.446;6.854;2023-07-13T23:03:30;4.47;;;1.60;;
8694;SDS011;65580;49.446;6.854;2023-07-13T23:07:35;2.85;;;1.60;;
8694;SDS011;65580;49.446;6.854;2023-07-13T23:11:41;2.35;;;1.40;;
8694;SDS011;65580;49.446;6.854;2023-07-13T23:15:44;2.92;;;1.60;;
8694;SDS011;65580;49.446;6.854;2023-07-13T23:19:47;3.42;;;1.25;;
8694;SDS011;65580;49.446;6.854;2023-07-13T23:23:50;3.90;;;1.60;;
8694;SDS011;65580;49.446;6.854;2023-07-13T23:27:55;2.45;;;1.30;;
8694;SDS011;65580;49.446;6.854;2023-07-13T23:32:00;3.53;;;1.70;;
8694;SDS011;65580;49.446;6.854;2023-07-13T23:36:05;4.32;;;1.67;;
8694;SDS011;65580;49.446;6.854;2023-07-13T23:40:14;2.25;;;1.40;;
8694;SDS011;65580;49.446;6.854;2023-07-13T23:44:20;4.03;;;1.73;;
8694;SDS011;65580;49.446;6.854;2023-07-13T23:48:23;1.80;;;1.45;;
8694;SDS011;65580;49.446;6.854;2023-07-13T23:52:26;2.63;;;1.30;;
8694;SDS011;65580;49.446;6.854;2023-07-13T23:56:29;3.45;;;1.40;;
